Time;durP1;ratioP1;P1;durP2;ratioP2;P2;SDS_P1;SDS_P2;PMS_P1;PMS_P2;Temp;Humidity;BMP_temperature;BMP_pressure;BME280_temperature;BME280_humidity;BME280_pressure;Samples;Min_cycle;Max_cycle;Signal;HPM_P1;HPM_P2
2021/05/24 00:01:17;;;;;;;2.87;2.63;;;13.30;86.20;;;;;;5016291;28;20217;-91
2021/05/24 00:03:43;;;;;;;2.30;2.20;;;13.40;87.50;;;;;;5016564;28;20178;-85
2021/05/24 00:06:09;;;;;;;2.70;2.50;;;13.50;86.20;;;;;;5034107;28;20466;-85
2021/05/24 00:08:35;;;;;;;2.40;2.30;;;13.30;85.90;;;;;;5015987;28;20163;-85
2021/05/24 00:11:00;;;;;;;2.20;2.10;;;13.30;86.70;;;;;;5016356;28;20210;-85
2021/05/24 00:13:26;;;;;;;2.37;2.27;;;13.30;87.10;;;;;;5015794;28;20175;-85
2021/05/24 00:15:54;;;;;;;2.90;2.67;;;13.40;88.00;;;;;;5033961;28;20217;-86
2021/05/24 00:18:20;;;;;;;3.10;2.80;;;13.40;87.20;;;;;;5033401;28;20189;-85
2021/05/24 00:20:52;;;;;;;2.73;2.50;;;13.40;87.60;;;;;;5016277;28;20897;-87
2021/05/24 00:23:19;;;;;;;2.77;2.67;;;13.30;88.30;;;;;;5016364;28;20171;-87
2021/05/24 00:25:44;;;;;;;2.63;2.53;;;13.40;88.00;;;;;;5033511;28;20461;-85
2021/05/24 00:28:13;;;;;;;2.40;2.30;;;13.50;88.00;;;;;;5033689;28;20960;-86
2021/05/24 00:30:43;;;;;;;2.50;2.30;;;13.50;89.10;;;;;;5015461;28;20702;-86
2021/05/24 00:33:09;;;;;;;2.63;2.53;;;13.50;88.00;;;;;;5033583;28;20904;-87
2021/05/24 00:35:35;;;;;;;2.50;2.40;;;13.40;88.50;;;;;;5015455;28;20406;-85
2021/05/24 00:38:03;;;;;;;2.40;2.30;;;13.30;88.90;;;;;;5015822;28;20427;-85
2021/05/24 00:40:30;;;;;;;3.27;2.97;;;13.40;89.60;;;;;;5032888;28;20405;-86
2021/05/24 00:42:56;;;;;;;2.60;2.40;;;13.40;89.50;;;;;;5033418;28;20475;-86
2021/05/24 00:45:23;;;;;;;2.60;2.40;;;13.50;90.10;;;;;;5032693;28;20500;-86
2021/05/24 00:47:49;;;;;;;2.50;2.40;;;13.50;89.80;;;;;;5033222;28;20419;-85
2021/05/24 00:50:16;;;;;;;4.87;2.87;;;13.50;89.80;;;;;;5033277;28;20459;-86
2021/05/24 00:52:42;;;;;;;3.70;2.90;;;13.60;89.80;;;;;;5032508;28;20421;-85
2021/05/24 00:55:09;;;;;;;3.00;2.90;;;13.60;90.10;;;;;;5015510;28;20467;-86
2021/05/24 00:57:35;;;;;;;2.90;2.70;;;13.60;90.10;;;;;;5032602;28;20413;-87
2021/05/24 01:00:03;;;;;;;2.60;2.40;;;13.60;90.20;;;;;;5015643;28;20409;-85
2021/05/24 01:02:42;;;;;;;3.30;3.10;;;13.60;90.10;;;;;;5032410;28;20471;-87
2021/05/24 01:05:08;;;;;;;2.97;2.77;;;13.60;90.40;;;;;;5033072;28;20403;-87
2021/05/24 01:07:34;;;;;;;2.87;2.73;;;13.40;90.50;;;;;;5031996;28;20972;-87
2021/05/24 01:10:00;;;;;;;2.63;2.50;;;13.50;90.60;;;;;;5015240;28;20541;-86
2021/05/24 01:12:26;;;;;;;3.37;2.83;;;13.40;90.60;;;;;;5032238;28;20176;-86
2021/05/24 01:14:51;;;;;;;2.43;2.33;;;13.30;90.90;;;;;;5032440;28;20225;-87
2021/05/24 01:17:17;;;;;;;3.03;2.90;;;13.10;91.10;;;;;;5015147;28;20182;-87
2021/05/24 01:19:47;;;;;;;2.90;2.77;;;13.10;91.70;;;;;;5031976;28;20221;-87
2021/05/24 01:22:18;;;;;;;2.60;2.50;;;13.10;92.00;;;;;;5032670;28;20652;-87
2021/05/24 01:24:44;;;;;;;3.33;3.20;;;13.00;91.90;;;;;;5029339;28;20452;-87
2021/05/24 01:27:10;;;;;;;2.53;2.43;;;13.00;92.30;;;;;;5051444;28;20964;-87
2021/05/24 01:29:36;;;;;;;3.00;2.70;;;13.10;92.10;;;;;;5051951;28;20546;-86
2021/05/24 01:32:02;;;;;;;3.37;3.27;;;13.10;92.10;;;;;;5052668;28;20839;-87
2021/05/24 01:34:28;;;;;;;3.00;2.80;;;13.10;92.30;;;;;;5052093;28;20444;-87
2021/05/24 01:36:54;;;;;;;2.97;2.70;;;13.20;92.20;;;;;;5052512;28;20443;-87
2021/05/24 01:39:19;;;;;;;3.60;3.40;;;13.20;92.00;;;;;;5051353;28;20188;-87
2021/05/24 01:41:46;;;;;;;6.87;2.90;;;13.30;91.90;;;;;;5051929;28;20177;-87
2021/05/24 01:44:12;;;;;;;3.70;3.17;;;13.30;91.80;;;;;;5051231;28;20177;-86
2021/05/24 01:46:38;;;;;;;3.50;3.40;;;13.20;92.20;;;;;;5050587;28;20481;-87
2021/05/24 01:49:04;;;;;;;2.50;2.40;;;13.20;92.40;;;;;;5052420;28;20411;-88
2021/05/24 01:51:30;;;;;;;2.93;2.73;;;13.20;92.50;;;;;;5051808;28;20463;-88
2021/05/24 01:53:56;;;;;;;3.47;3.20;;;13.20;92.30;;;;;;5052142;28;20420;-88
2021/05/24 01:56:21;;;;;;;2.50;2.40;;;13.10;92.30;;;;;;5052695;28;20474;-88
2021/05/24 01:58:48;;;;;;;2.43;2.33;;;13.10;92.60;;;;;;5051842;28;20178;-88
2021/05/24 02:01:14;;;;;;;4.40;2.90;;;13.10;92.70;;;;;;5052248;28;20192;-88
2021/05/24 02:03:40;;;;;;;2.80;2.70;;;13.10;92.60;;;;;;5051811;28;20412;-88
2021/05/24 02:06:07;;;;;;;2.37;2.30;;;13.20;92.80;;;;;;5051217;28;20773;-87
2021/05/24 02:08:33;;;;;;;2.80;2.60;;;13.10;92.60;;;;;;5051688;28;20486;-87
2021/05/24 02:11:01;;;;;;;3.40;3.20;;;13.10;92.90;;;;;;5051039;28;20459;-86
2021/05/24 02:13:28;;;;;;;2.70;2.50;;;13.20;92.90;;;;;;5050571;28;20448;-87
2021/05/24 02:15:54;;;;;;;3.07;2.77;;;13.20;92.80;;;;;;5050995;28;20444;-86
2021/05/24 02:18:20;;;;;;;2.73;2.50;;;13.20;92.80;;;;;;5051255;28;20414;-86
2021/05/24 02:20:47;;;;;;;2.47;2.30;;;13.20;92.70;;;;;;5054180;28;20788;-86
2021/05/24 02:23:12;;;;;;;2.63;2.53;;;13.30;92.90;;;;;;5056022;28;20826;-87
2021/05/24 02:25:38;;;;;;;3.30;3.10;;;13.20;93.00;;;;;;5038649;28;20558;-86
2021/05/24 02:28:05;;;;;;;2.70;2.50;;;13.10;92.90;;;;;;5035609;28;20189;-86
2021/05/24 02:30:33;;;;;;;2.77;2.67;;;13.00;93.30;;;;;;5017680;28;20452;-88
2021/05/24 02:32:59;;;;;;;3.77;3.47;;;13.00;93.40;;;;;;5018496;28;20420;-88
2021/05/24 02:35:26;;;;;;;3.00;2.80;;;13.00;93.60;;;;;;5018436;28;20416;-87
2021/05/24 02:37:52;;;;;;;2.73;2.63;;;13.10;93.40;;;;;;5018151;28;20182;-87
2021/05/24 02:40:20;;;;;;;3.30;3.10;;;13.00;93.30;;;;;;5017993;28;20417;-87
2021/05/24 02:42:47;;;;;;;2.97;2.77;;;13.10;93.50;;;;;;5000996;28;20640;-87
2021/05/24 02:45:15;;;;;;;2.90;2.70;;;13.10;93.50;;;;;;5017943;28;20416;-88
2021/05/24 02:47:41;;;;;;;3.17;2.90;;;13.10;93.40;;;;;;5034980;28;20409;-88
2021/05/24 02:50:10;;;;;;;3.00;2.90;;;13.00;93.40;;;;;;5017642;28;20456;-87
2021/05/24 02:52:35;;;;;;;3.00;2.90;;;13.10;93.60;;;;;;5017201;28;20424;-87
2021/05/24 02:55:03;;;;;;;2.47;2.37;;;13.10;93.60;;;;;;5017696;28;20424;-87
2021/05/24 02:57:29;;;;;;;3.03;2.83;;;13.10;93.40;;;;;;5034793;28;20183;-88
2021/05/24 02:59:54;;;;;;;2.70;2.60;;;13.10;93.70;;;;;;5035161;28;20931;-87
2021/05/24 03:02:28;;;;;;;3.00;2.80;;;13.10;93.30;;;;;;5035186;28;20655;-87
2021/05/24 03:04:54;;;;;;;3.00;2.90;;;13.10;93.30;;;;;;5035193;28;20186;-87
2021/05/24 03:07:20;;;;;;;3.23;3.10;;;13.10;93.40;;;;;;5017232;28;20984;-87
2021/05/24 03:09:46;;;;;;;2.87;2.67;;;13.10;93.30;;;;;;5016761;28;20448;-87
2021/05/24 03:12:11;;;;;;;2.70;2.60;;;13.20;93.40;;;;;;5017362;28;20409;-86
2021/05/24 03:14:37;;;;;;;2.73;2.63;;;13.20;93.20;;;;;;5016729;28;20416;-87
2021/05/24 03:17:03;;;;;;;2.87;2.77;;;13.20;93.30;;;;;;5034962;28;20174;-87
2021/05/24 03:19:29;;;;;;;3.00;2.90;;;13.20;93.20;;;;;;5016666;28;20456;-90
2021/05/24 03:21:55;;;;;;;3.57;3.47;;;13.20;93.10;;;;;;5018576;28;20418;-88
2021/05/24 03:24:21;;;;;;;3.23;3.03;;;13.20;93.10;;;;;;5035702;28;20237;-88
2021/05/24 03:26:46;;;;;;;3.00;2.90;;;13.30;93.20;;;;;;5034705;28;20182;-88
2021/05/24 03:29:12;;;;;;;3.80;3.70;;;13.30;93.00;;;;;;5033333;28;20221;-87
2021/05/24 03:31:38;;;;;;;3.27;3.00;;;13.30;93.20;;;;;;5016788;28;20634;-88
2021/05/24 03:34:04;;;;;;;2.80;2.70;;;13.40;92.90;;;;;;5034803;28;20170;-87
2021/05/24 03:36:30;;;;;;;3.03;2.90;;;13.40;92.80;;;;;;5034924;28;20626;-91
2021/05/24 03:38:55;;;;;;;3.53;3.23;;;13.40;92.60;;;;;;5034641;28;20170;-87
2021/05/24 03:41:21;;;;;;;3.93;3.67;;;13.40;92.60;;;;;;5016953;28;20417;-87
2021/05/24 03:43:48;;;;;;;2.97;2.87;;;13.40;92.60;;;;;;5034013;28;20178;-87
2021/05/24 03:46:14;;;;;;;2.77;2.67;;;13.40;92.40;;;;;;5034574;28;20190;-87
2021/05/24 03:48:40;;;;;;;3.00;2.77;;;13.40;92.30;;;;;;5033909;28;20413;-87
2021/05/24 03:51:07;;;;;;;3.37;3.13;;;13.40;92.50;;;;;;5016576;28;20448;-87
2021/05/24 03:53:33;;;;;;;3.20;3.00;;;13.40;92.70;;;;;;5016006;28;20442;-88
2021/05/24 03:55:59;;;;;;;3.40;3.10;;;13.50;92.70;;;;;;5016579;28;20417;-87
2021/05/24 03:58:25;;;;;;;2.97;2.87;;;13.50;92.50;;;;;;5016573;28;20417;-87
2021/05/24 04:00:51;;;;;;;3.00;2.90;;;13.60;92.30;;;;;;5015938;28;20629;-88
2021/05/24 04:03:17;;;;;;;3.13;2.93;;;13.60;92.30;;;;;;5034099;28;20174;-87
2021/05/24 04:05:45;;;;;;;2.90;2.80;;;13.60;92.30;;;;;;5033446;28;20409;-87
2021/05/24 04:08:11;;;;;;;3.20;3.10;;;13.70;91.80;;;;;;5016365;28;20211;-88
2021/05/24 04:10:40;;;;;;;3.30;3.20;;;13.70;91.90;;;;;;5033077;28;20539;-87
2021/05/24 04:13:06;;;;;;;3.37;3.27;;;13.60;92.10;;;;;;5033762;28;20182;-87
2021/05/24 04:15:32;;;;;;;3.10;3.00;;;13.70;92.20;;;;;;5033990;28;20417;-87
2021/05/24 04:18:01;;;;;;;3.03;2.60;;;13.70;91.70;;;;;;5033740;28;20189;-86
2021/05/24 04:20:26;;;;;;;3.90;3.70;;;13.70;91.60;;;;;;5015994;28;20424;-86
2021/05/24 04:22:53;;;;;;;3.67;3.37;;;13.70;91.70;;;;;;5033280;28;20891;-86
2021/05/24 04:25:19;;;;;;;3.40;3.20;;;13.80;92.10;;;;;;5033795;28;20223;-87
2021/05/24 04:27:45;;;;;;;3.03;2.93;;;13.80;91.60;;;;;;5032985;28;20959;-87
2021/05/24 04:30:13;;;;;;;4.30;4.00;;;13.90;91.90;;;;;;5016103;28;20451;-87
2021/05/24 04:32:39;;;;;;;2.90;2.80;;;13.90;91.50;;;;;;5033311;28;20503;-87
2021/05/24 04:35:07;;;;;;;4.60;3.20;;;14.00;91.80;;;;;;5033592;28;20425;-86
2021/05/24 04:37:36;;;;;;;3.43;3.17;;;14.00;91.70;;;;;;5033726;28;20174;-86
2021/05/24 04:40:02;;;;;;;3.40;3.20;;;13.70;91.00;;;;;;5033438;28;20417;-86
2021/05/24 04:42:28;;;;;;;5.00;3.30;;;13.80;91.40;;;;;;5032664;28;20425;-86
2021/05/24 04:44:53;;;;;;;4.20;3.90;;;13.80;91.40;;;;;;5032746;28;20417;-87
2021/05/24 04:47:19;;;;;;;3.20;3.10;;;13.80;91.30;;;;;;5033228;28;20658;-87
2021/05/24 04:49:49;;;;;;;3.50;3.30;;;13.70;91.10;;;;;;5014897;28;20228;-88
2021/05/24 04:52:16;;;;;;;3.30;2.97;;;13.70;91.30;;;;;;5033112;28;20212;-87
2021/05/24 04:54:42;;;;;;;3.73;3.53;;;13.80;91.90;;;;;;5032540;28;20413;-87
2021/05/24 04:57:07;;;;;;;3.10;2.90;;;13.70;91.70;;;;;;5032979;28;20435;-87
2021/05/24 04:59:33;;;;;;;3.90;3.50;;;13.70;91.30;;;;;;5033010;28;20405;-88
2021/05/24 05:01:59;;;;;;;4.47;4.17;;;13.70;91.20;;;;;;5032512;28;20289;-87
2021/05/24 05:04:24;;;;;;;3.37;3.17;;;13.70;91.40;;;;;;5033330;28;20175;-88
2021/05/24 05:06:51;;;;;;;2.40;2.20;;;13.80;91.90;;;;;;5032454;28;20172;-87
2021/05/24 05:09:17;;;;;;;2.77;2.50;;;13.90;91.60;;;;;;5015266;28;20182;-87
2021/05/24 05:11:42;;;;;;;2.40;2.30;;;14.00;91.10;;;;;;5032711;28;20893;-88
2021/05/24 05:14:08;;;;;;;2.63;2.43;;;14.10;90.80;;;;;;5032528;28;20175;-87
2021/05/24 05:16:34;;;;;;;3.00;2.60;;;14.10;90.70;;;;;;5032814;28;20603;-87
2021/05/24 05:18:59;;;;;;;4.37;3.00;;;14.10;90.40;;;;;;5032012;28;20265;-87
2021/05/24 05:21:25;;;;;;;3.00;2.90;;;14.20;91.20;;;;;;5032809;28;20547;-87
2021/05/24 05:23:51;;;;;;;3.27;3.17;;;14.20;90.40;;;;;;5032111;28;20178;-87
2021/05/24 05:26:17;;;;;;;3.43;3.13;;;14.10;90.20;;;;;;5033048;28;20395;-87
2021/05/24 05:28:43;;;;;;;3.43;3.20;;;14.00;90.50;;;;;;5014526;28;20175;-88
2021/05/24 05:31:08;;;;;;;2.90;2.80;;;14.10;90.90;;;;;;5015236;28;20218;-87
2021/05/24 05:33:34;;;;;;;2.93;2.83;;;14.20;90.20;;;;;;5015104;28;20413;-87
2021/05/24 05:36:00;;;;;;;3.23;3.03;;;14.20;90.40;;;;;;5014483;28;20179;-87
2021/05/24 05:38:28;;;;;;;5.13;3.13;;;14.20;90.10;;;;;;5032675;28;20563;-87
2021/05/24 05:40:54;;;;;;;3.03;2.83;;;14.30;90.20;;;;;;5032210;28;20175;-87
2021/05/24 05:43:20;;;;;;;2.73;2.63;;;14.40;89.70;;;;;;5032594;28;20410;-87
2021/05/24 05:45:47;;;;;;;3.00;2.80;;;14.50;89.30;;;;;;5032260;28;20410;-86
2021/05/24 05:48:13;;;;;;;2.80;2.60;;;14.50;88.10;;;;;;5032401;28;20441;-87
2021/05/24 05:50:39;;;;;;;2.93;2.67;;;14.60;88.20;;;;;;5014472;28;20541;-88
2021/05/24 05:53:05;;;;;;;2.60;2.50;;;14.60;87.40;;;;;;5034252;28;20423;-88
2021/05/24 05:55:31;;;;;;;2.23;2.20;;;14.60;87.40;;;;;;5018905;28;20416;-87
2021/05/24 05:57:57;;;;;;;2.77;2.50;;;14.70;87.20;;;;;;5034710;28;20429;-87
2021/05/24 06:00:23;;;;;;;2.63;2.43;;;14.70;86.70;;;;;;5036638;28;20486;-87
2021/05/24 06:02:49;;;;;;;2.50;2.30;;;14.80;88.10;;;;;;5017938;28;20542;-87
2021/05/24 06:05:15;;;;;;;2.27;1.97;;;14.80;86.60;;;;;;5036172;28;20419;-87
2021/05/24 06:07:41;;;;;;;2.03;1.93;;;14.90;86.30;;;;;;5035470;28;20241;-87
2021/05/24 06:10:08;;;;;;;2.40;2.30;;;14.80;85.70;;;;;;5018533;28;20941;-87
2021/05/24 06:12:34;;;;;;;1.90;1.80;;;14.80;86.30;;;;;;5018539;28;20509;-87
2021/05/24 06:15:00;;;;;;;2.30;2.20;;;14.90;86.20;;;;;;5018044;28;20408;-87
2021/05/24 06:17:26;;;;;;;2.80;2.60;;;15.00;86.30;;;;;;5018470;28;20490;-87
2021/05/24 06:19:52;;;;;;;2.80;2.50;;;15.00;85.20;;;;;;5017954;28;20499;-87
2021/05/24 06:22:18;;;;;;;2.27;2.17;;;15.10;86.10;;;;;;5018693;28;20188;-87
2021/05/24 06:24:43;;;;;;;3.00;2.83;;;15.10;84.90;;;;;;5035473;28;20275;-88
2021/05/24 06:27:09;;;;;;;2.80;2.60;;;15.20;85.00;;;;;;5018396;28;20420;-87
2021/05/24 06:29:35;;;;;;;2.50;2.37;;;15.20;83.70;;;;;;5035920;28;20260;-88
2021/05/24 06:32:01;;;;;;;2.70;2.60;;;15.20;84.00;;;;;;5035390;28;20215;-88
2021/05/24 06:34:26;;;;;;;2.00;1.90;;;15.30;84.30;;;;;;5018139;28;20210;-88
2021/05/24 06:36:52;;;;;;;3.60;2.10;;;15.50;84.80;;;;;;5035315;28;20201;-88
2021/05/24 06:39:18;;;;;;;2.00;2.00;;;15.60;82.90;;;;;;5019979;28;20181;-88
2021/05/24 06:41:45;;;;;;;2.53;2.37;;;15.70;83.20;;;;;;5036067;28;20185;-88
2021/05/24 06:44:10;;;;;;;2.40;2.30;;;15.80;82.30;;;;;;5035820;28;20479;-88
2021/05/24 06:46:36;;;;;;;2.43;2.23;;;15.70;81.60;;;;;;5035575;28;20503;-87
2021/05/24 06:49:02;;;;;;;2.43;2.23;;;15.80;81.60;;;;;;5017286;28;20266;-87
2021/05/24 06:51:28;;;;;;;2.50;2.33;;;15.90;81.20;;;;;;5017546;28;20284;-87
2021/05/24 06:53:54;;;;;;;2.10;2.00;;;16.00;82.50;;;;;;5034543;28;20522;-86
2021/05/24 06:56:20;;;;;;;2.30;2.20;;;16.10;81.50;;;;;;5035421;28;20210;-87
2021/05/24 06:58:46;;;;;;;2.13;2.13;;;16.10;78.50;;;;;;5017250;28;20504;-88
2021/05/24 07:01:13;;;;;;;2.43;2.20;;;16.10;80.60;;;;;;5035235;28;20868;-87
2021/05/24 07:03:39;;;;;;;1.80;1.70;;;16.30;79.90;;;;;;5017773;28;20206;-87
2021/05/24 07:06:05;;;;;;;2.60;2.50;;;16.30;78.90;;;;;;5034101;28;20419;-87
2021/05/24 07:08:31;;;;;;;1.90;1.80;;;16.40;78.20;;;;;;5017654;28;20411;-90
2021/05/24 07:10:57;;;;;;;1.70;1.70;;;16.50;77.60;;;;;;5017092;28;20779;-90
2021/05/24 07:13:23;;;;;;;2.33;1.70;;;16.60;77.60;;;;;;5034906;28;20458;-87
2021/05/24 07:15:49;;;;;;;2.30;2.10;;;16.70;78.10;;;;;;5016771;28;20420;-88
2021/05/24 07:18:14;;;;;;;1.90;1.80;;;16.80;80.10;;;;;;5034960;28;20204;-88
2021/05/24 07:20:41;;;;;;;2.33;2.13;;;16.80;78.10;;;;;;5035092;28;20173;-88
2021/05/24 07:23:09;;;;;;;1.70;1.70;;;16.80;75.90;;;;;;5016636;28;20180;-89
2021/05/24 07:25:37;;;;;;;1.90;1.80;;;16.90;77.80;;;;;;5030783;28;20564;-88
2021/05/24 07:28:03;;;;;;;1.60;1.50;;;16.80;76.00;;;;;;5054281;28;20742;-87
2021/05/24 07:30:29;;;;;;;3.07;2.77;;;16.80;77.70;;;;;;5054573;28;20201;-88
2021/05/24 07:32:56;;;;;;;1.50;1.40;;;16.90;77.50;;;;;;5053003;28;20465;-90
2021/05/24 07:35:21;;;;;;;3.70;3.40;;;17.00;76.20;;;;;;5055699;28;20643;-90
2021/05/24 07:37:47;;;;;;;4.43;4.07;;;17.00;74.30;;;;;;5057159;28;20463;-89
2021/05/24 07:40:13;;;;;;;1.93;1.83;;;17.10;75.70;;;;;;5063201;28;20200;-89
2021/05/24 07:42:41;;;;;;;1.67;1.50;;;17.20;74.90;;;;;;5062810;28;20180;-83
2021/05/24 07:45:08;;;;;;;2.40;1.53;;;17.20;73.70;;;;;;5062635;28;20549;-84
2021/05/24 07:47:33;;;;;;;1.40;1.30;;;17.40;73.60;;;;;;5061779;28;20414;-83
2021/05/24 07:50:00;;;;;;;2.07;1.70;;;17.40;73.80;;;;;;5066230;28;20462;-84
2021/05/24 07:52:25;;;;;;;5.73;1.90;;;17.60;73.30;;;;;;5061670;28;20416;-84
2021/05/24 07:54:51;;;;;;;2.43;2.27;;;17.70;73.00;;;;;;5061070;28;20415;-84
2021/05/24 07:57:17;;;;;;;2.77;2.07;;;17.80;73.20;;;;;;5062467;28;20184;-84
2021/05/24 07:59:43;;;;;;;2.37;2.17;;;18.10;73.20;;;;;;5062274;28;20182;-84
2021/05/24 08:02:09;;;;;;;2.40;2.20;;;18.20;72.90;;;;;;5063438;28;20177;-83
2021/05/24 08:04:35;;;;;;;2.00;1.60;;;18.40;72.10;;;;;;5072794;28;20173;-86
2021/05/24 08:07:01;;;;;;;2.10;2.00;;;18.50;71.10;;;;;;5072206;28;20447;-83
2021/05/24 08:09:28;;;;;;;2.10;2.00;;;18.70;70.60;;;;;;5072647;28;20442;-84
2021/05/24 08:11:54;;;;;;;3.10;1.63;;;18.70;69.60;;;;;;5072086;28;20188;-84
2021/05/24 08:14:20;;;;;;;2.30;2.10;;;18.80;70.20;;;;;;5072660;28;20533;-84
2021/05/24 08:16:48;;;;;;;2.20;2.10;;;18.90;69.00;;;;;;5072483;28;20456;-84
2021/05/24 08:19:14;;;;;;;2.23;2.13;;;19.10;69.60;;;;;;5073426;28;20269;-83
2021/05/24 08:21:45;;;;;;;2.20;2.00;;;19.10;68.10;;;;;;5073459;28;20411;-84
2021/05/24 08:24:12;;;;;;;2.50;2.40;;;19.10;68.50;;;;;;5072169;28;20566;-84
2021/05/24 08:26:38;;;;;;;1.80;1.70;;;19.20;68.90;;;;;;5072076;28;20847;-83
2021/05/24 08:29:04;;;;;;;1.77;1.67;;;19.20;67.10;;;;;;5072952;28;20766;-82
2021/05/24 08:31:31;;;;;;;2.13;2.03;;;19.10;66.60;;;;;;5072154;28;20821;-83
2021/05/24 08:33:57;;;;;;;1.60;1.60;;;19.00;67.20;;;;;;5072059;28;20408;-80
2021/05/24 08:36:23;;;;;;;2.23;1.60;;;19.00;64.50;;;;;;5073347;28;20411;-80
2021/05/24 08:38:49;;;;;;;2.80;1.57;;;18.90;66.40;;;;;;5072708;28;20445;-80
2021/05/24 08:41:17;;;;;;;3.40;3.10;;;19.00;66.70;;;;;;5073011;28;20402;-81
2021/05/24 08:43:43;;;;;;;8.07;7.07;;;19.10;67.50;;;;;;5072991;28;20173;-80
2021/05/24 08:46:10;;;;;;;1.90;1.80;;;19.10;68.30;;;;;;5072654;28;20429;-80
2021/05/24 08:48:37;;;;;;;2.60;2.40;;;19.10;66.60;;;;;;5073132;28;20865;-81
2021/05/24 08:51:08;;;;;;;2.47;1.87;;;19.10;66.60;;;;;;5071442;28;20447;-81
2021/05/24 08:53:37;;;;;;;2.20;2.10;;;19.30;68.00;;;;;;5072912;28;20465;-80
2021/05/24 08:56:07;;;;;;;1.83;1.73;;;19.30;65.30;;;;;;5071168;28;20890;-80
2021/05/24 08:58:33;;;;;;;2.20;2.10;;;19.40;66.50;;;;;;5071870;28;20387;-80
2021/05/24 09:00:59;;;;;;;2.60;2.00;;;19.60;62.40;;;;;;5071181;28;20757;-80
2021/05/24 09:03:29;;;;;;;2.20;2.00;;;19.60;61.30;;;;;;5073282;28;20408;-79
2021/05/24 09:05:58;;;;;;;2.03;1.93;;;19.60;60.40;;;;;;5072393;28;20482;-80
2021/05/24 09:08:39;;;;;;;2.60;2.40;;;19.70;61.30;;;;;;5072602;28;20456;-80
2021/05/24 09:11:06;;;;;;;3.90;2.87;;;19.70;59.50;;;;;;5071171;28;20496;-80
2021/05/24 09:13:34;;;;;;;2.00;1.80;;;19.70;59.90;;;;;;5054888;28;20415;-80
2021/05/24 09:16:00;;;;;;;2.33;2.23;;;19.50;59.60;;;;;;5071070;28;20740;-80
2021/05/24 09:18:27;;;;;;;2.00;1.90;;;19.40;59.50;;;;;;5072651;28;20419;-80
2021/05/24 09:20:53;;;;;;;3.17;1.90;;;19.30;61.00;;;;;;5072116;28;20395;-81
2021/05/24 09:23:23;;;;;;;1.90;1.90;;;19.20;62.10;;;;;;5072519;28;20411;-80
2021/05/24 09:26:05;;;;;;;3.07;2.50;;;19.10;63.30;;;;;;5054432;28;20452;-80
2021/05/24 09:29:06;;;;;;;3.10;2.27;;;18.80;62.60;;;;;;5034687;28;20400;-81
2021/05/24 09:31:33;;;;;;;4.53;1.93;;;18.70;64.10;;;;;;5020770;28;20497;-80
2021/05/24 09:34:01;;;;;;;2.30;1.90;;;18.60;65.00;;;;;;5033866;28;20408;-81
2021/05/24 09:36:28;;;;;;;2.30;2.20;;;18.70;66.70;;;;;;5052555;28;20416;-80
2021/05/24 09:39:03;;;;;;;1.90;1.50;;;18.90;64.10;;;;;;5034268;28;20939;-81
2021/05/24 09:41:30;;;;;;;2.17;2.07;;;18.90;63.20;;;;;;5034748;28;20404;-81
2021/05/24 09:43:57;;;;;;;2.37;2.27;;;19.00;63.50;;;;;;5051891;28;20400;-81
2021/05/24 09:46:25;;;;;;;2.13;2.03;;;19.00;63.30;;;;;;5034884;28;20448;-81
2021/05/24 09:49:12;;;;;;;2.20;2.10;;;18.90;62.90;;;;;;5034334;28;20437;-84
2021/05/24 09:51:38;;;;;;;2.30;2.10;;;18.70;63.50;;;;;;5052371;28;20451;-80
2021/05/24 09:54:13;;;;;;;2.47;2.27;;;18.70;64.80;;;;;;5051828;28;20408;-80
2021/05/24 09:56:47;;;;;;;2.33;2.13;;;18.70;64.70;;;;;;5052389;28;20402;-80
2021/05/24 09:59:19;;;;;;;2.20;2.10;;;18.60;64.00;;;;;;5051729;28;20423;-80
2021/05/24 10:01:48;;;;;;;2.90;2.70;;;18.50;62.50;;;;;;5034610;28;20807;-80
2021/05/24 10:04:19;;;;;;;2.40;2.30;;;18.40;63.70;;;;;;5051709;28;20400;-80
2021/05/24 10:06:45;;;;;;;2.70;2.50;;;18.30;64.90;;;;;;5052360;28;20404;-80
2021/05/24 10:09:13;;;;;;;2.77;2.60;;;18.30;63.90;;;;;;5051883;28;20454;-80
2021/05/24 10:11:44;;;;;;;2.27;2.17;;;18.10;64.80;;;;;;5034512;28;20454;-80
2021/05/24 10:14:13;;;;;;;2.30;2.20;;;18.00;65.70;;;;;;5051472;28;20408;-81
2021/05/24 10:16:45;;;;;;;3.07;2.00;;;18.00;67.10;;;;;;5052011;28;20408;-80
2021/05/24 10:19:13;;;;;;;2.80;2.70;;;18.00;65.50;;;;;;5033723;28;20484;-80
2021/05/24 10:21:39;;;;;;;3.17;2.87;;;17.90;65.80;;;;;;5052085;28;20411;-81
2021/05/24 10:24:06;;;;;;;35.17;26.40;;;17.80;66.70;;;;;;5038023;28;20454;-80
2021/05/24 10:26:33;;;;;;;96.10;70.77;;;17.80;67.10;;;;;;5072287;28;20422;-81
2021/05/24 10:29:01;;;;;;;3.20;3.00;;;17.70;66.70;;;;;;5071425;28;20444;-81
2021/05/24 10:31:29;;;;;;;2.10;2.00;;;17.80;66.10;;;;;;5070694;28;20449;-80
2021/05/24 10:34:07;;;;;;;5.00;4.50;;;17.80;66.80;;;;;;5071326;28;20411;-80
2021/05/24 10:36:33;;;;;;;1.63;1.60;;;17.90;66.50;;;;;;5070906;28;20528;-80
2021/05/24 10:39:34;;;;;;;2.40;2.20;;;17.80;67.60;;;;;;5053345;28;20509;-81
2021/05/24 10:42:00;;;;;;;1.87;1.77;;;17.80;66.90;;;;;;5056886;28;20240;-80
2021/05/24 10:44:42;;;;;;;2.03;1.93;;;18.00;68.10;;;;;;5074655;28;20423;-81
2021/05/24 10:47:23;;;;;;;2.30;2.20;;;18.10;66.30;;;;;;5073683;28;20408;-81
2021/05/24 10:50:08;;;;;;;4.10;2.33;;;18.10;67.20;;;;;;5057384;28;20469;-80
2021/05/24 10:52:38;;;;;;;3.53;2.10;;;18.20;67.30;;;;;;5075367;28;20411;-81
2021/05/24 10:55:27;;;;;;;2.93;2.13;;;18.40;68.40;;;;;;5073454;28;20466;-81
2021/05/24 10:58:04;;;;;;;2.47;2.27;;;18.70;67.10;;;;;;5056942;28;20835;-81
2021/05/24 11:00:58;;;;;;;2.30;2.20;;;18.90;66.50;;;;;;5075492;28;20408;-80
2021/05/24 11:03:24;;;;;;;2.77;2.50;;;19.00;65.80;;;;;;5075193;28;20493;-80
2021/05/24 11:06:10;;;;;;;2.90;2.60;;;18.80;64.60;;;;;;5075317;28;20490;-80
2021/05/24 11:08:38;;;;;;;2.63;2.43;;;18.60;66.10;;;;;;5074963;28;20573;-80
2021/05/24 11:11:30;;;;;;;3.07;2.53;;;18.50;66.60;;;;;;5073100;28;20485;-81
2021/05/24 11:14:01;;;;;;;3.47;3.20;;;18.40;65.70;;;;;;5073166;28;20447;-84
2021/05/24 11:16:28;;;;;;;1.93;1.80;;;18.40;65.50;;;;;;5073353;28;20934;-80
2021/05/24 11:19:11;;;;;;;2.63;2.53;;;18.20;64.70;;;;;;5073541;28;20952;-80
2021/05/24 11:21:39;;;;;;;2.80;2.60;;;18.20;66.90;;;;;;5073582;28;20458;-80
2021/05/24 11:27:09;;;;;;;3.07;2.80;;;18.10;69.10;;;;;;5074775;28;20741;-80
2021/05/24 11:29:35;;;;;;;2.60;2.40;;;18.10;72.00;;;;;;5073535;28;20411;-80
2021/05/24 11:32:22;;;;;;;2.80;2.60;;;17.80;72.20;;;;;;5073955;28;20477;-81
2021/05/24 11:34:48;;;;;;;2.83;2.63;;;17.80;74.60;;;;;;5074278;28;20559;-80
2021/05/24 11:37:14;;;;;;;3.40;2.53;;;17.90;74.80;;;;;;5072530;28;20419;-81
2021/05/24 11:39:56;;;;;;;2.60;2.40;;;17.70;75.50;;;;;;5073477;28;20457;-80
2021/05/24 11:42:26;;;;;;;2.67;2.47;;;17.60;75.80;;;;;;5072401;28;20527;-81
2021/05/24 11:44:55;;;;;;;2.60;2.20;;;17.50;78.10;;;;;;5074365;28;20407;-81
2021/05/24 11:47:24;;;;;;;2.57;2.40;;;17.50;77.80;;;;;;5072180;28;20770;-81
2021/05/24 11:49:52;;;;;;;2.37;2.27;;;17.40;76.60;;;;;;5074134;28;20406;-81
2021/05/24 11:52:23;;;;;;;3.00;2.50;;;17.30;77.40;;;;;;5073415;28;21251;-81
2021/05/24 11:54:50;;;;;;;3.53;3.30;;;17.20;77.70;;;;;;5072592;28;20421;-81
2021/05/24 11:57:21;;;;;;;3.30;3.00;;;17.10;77.60;;;;;;5072090;28;20427;-81
2021/05/24 11:59:47;;;;;;;2.60;2.30;;;17.20;79.30;;;;;;5072800;28;20418;-81
2021/05/24 12:02:14;;;;;;;2.10;2.00;;;17.20;77.60;;;;;;5073429;28;20409;-81
2021/05/24 12:04:41;;;;;;;2.23;2.03;;;17.10;77.20;;;;;;5073943;28;20411;-81
2021/05/24 12:07:08;;;;;;;3.73;2.47;;;17.00;78.60;;;;;;5073336;28;20410;-81
2021/05/24 12:09:50;;;;;;;2.87;2.50;;;16.90;80.80;;;;;;5073769;28;20416;-80
2021/05/24 12:12:20;;;;;;;2.27;2.13;;;16.90;81.70;;;;;;5072981;28;20494;-81
2021/05/24 12:14:51;;;;;;;2.13;2.00;;;17.10;82.00;;;;;;5072705;28;20414;-80
2021/05/24 12:17:20;;;;;;;1.80;1.80;;;17.20;83.40;;;;;;5073364;28;20739;-81
2021/05/24 12:19:48;;;;;;;3.63;2.60;;;17.20;82.30;;;;;;5072546;28;20776;-79
2021/05/24 12:22:15;;;;;;;2.53;2.33;;;17.10;84.10;;;;;;5072846;28;20543;-80
2021/05/24 12:24:44;;;;;;;2.63;2.50;;;17.10;83.10;;;;;;5072104;28;20458;-81
2021/05/24 12:27:11;;;;;;;3.40;2.60;;;17.10;82.30;;;;;;5072903;28;20421;-80
2021/05/24 12:30:17;;;;;;;237.20;171.80;;;17.00;82.70;;;;;;5073324;28;20430;-81
2021/05/24 12:32:45;;;;;;;8.43;7.63;;;16.90;84.70;;;;;;5055624;28;20448;-81
2021/05/24 12:35:19;;;;;;;6.53;4.17;;;16.70;87.50;;;;;;5072513;28;20928;-81
2021/05/24 12:37:55;;;;;;;3.43;3.13;;;16.60;89.00;;;;;;5072425;28;20572;-80
2021/05/24 12:40:23;;;;;;;2.50;2.30;;;16.40;90.20;;;;;;5072672;28;21095;-81
2021/05/24 12:42:50;;;;;;;2.73;2.53;;;16.30;91.20;;;;;;5073142;28;20418;-81
2021/05/24 12:45:16;;;;;;;2.33;2.23;;;16.20;92.30;;;;;;5072539;28;20423;-81
2021/05/24 12:47:42;;;;;;;3.03;2.83;;;16.30;93.60;;;;;;5073321;28;20798;-80
2021/05/24 12:50:16;;;;;;;2.87;2.77;;;16.30;93.80;;;;;;5072289;28;20588;-81
2021/05/24 12:52:42;;;;;;;2.70;2.60;;;16.20;94.20;;;;;;5071773;28;20184;-81